Terminal Aerodrome Forecast
Issued by NWS Louisville, KY

Home | Current Version | Previous Version | Text Only | Print | Product List | Glossary On
Versions: 1 2 3 4 5 6 7 8 9 10 11 12
000
FTUS43 KLMK 250500
TAFLEX
TAF
KLEX 250520Z 2506/2606 18010KT P6SM BKN100
     FM251400 20015G21KT P6SM VCSH BKN045
     FM251800 21013G24KT P6SM VCTS BKN030CB
     FM260000 16007KT P6SM VCSH BKN050=

USA.gov is the U.S. government's official web portal to all federal, state and local government web resources and services.